PWSweather.com
Personal Weather Stations
Station Observations
FAUSKE
Nordland, Norway, FauskeNO 8200

Nordland, NorwayFauskeNO 8200

Lat: 67.2607586, Lon: 15.4114204

Elevation: 40

Station Type: Davis Vantage PRO2

http://www.bjornli.net/weather.html

High Low Average
Temperature 49.5°F9.7°C 43.0°F6.1°C 46.6°F8.1°C
Dew Point 47.4°F8.6°C 41.4°F5.2°C 44.3°F6.8°C
Winds 12.0 mph 19.3 kmh Calm Calm Calm SWCalm SW
Wind Gusts 12.0 mph19.3 kmh -- 1.0 mph1.6 kmh
Humidity 97% 78% 92%
Pressure 29.75 in1007.5 mb 29.46 in997.6 mb -
Precipitation 0.00 in0.0 mm - -
Hour Temp Dew Point Humidity Winds Wind Gusts Pressure Precip Precip Rate Daily Precip Total
12:00 AM 46.9°F8.3°C 45.8°F7.7°C 96% Calm Calm -- 29.46 in997.6 mb 0.02 in0.5 mm 0.00 in0.0 mm 0.02 in0.5 mm
12:09 AM 46.9°F8.3°C 46.1°F7.8°C 97% Calm Calm -- 29.46 in997.6 mb 0.03 in0.8 mm 0.07 in1.8 mm 0.03 in0.8 mm
12:30 AM 46.8°F8.2°C 46.0°F7.8°C 97% Calm Calm -- 29.46 in997.6 mb 0.03 in0.8 mm 0.00 in0.0 mm 0.03 in0.8 mm
12:40 AM 46.8°F8.2°C 46.0°F7.8°C 97% Calm Calm -- 29.46 in997.6 mb 0.05 in1.3 mm 0.12 in3.0 mm 0.05 in1.3 mm
01:00 AM 46.9°F8.3°C 46.1°F7.8°C 97% Calm Calm -- 29.46 in997.6 mb 0.05 in1.3 mm 0.00 in0.0 mm 0.05 in1.3 mm
01:10 AM 46.8°F8.2°C 46.0°F7.8°C 97% Calm Calm -- 29.46 in997.6 mb 0.05 in1.3 mm 0.00 in0.0 mm 0.05 in1.3 mm
01:30 AM 46.7°F8.2°C 45.9°F7.7°C 97% Calm Calm -- 29.47 in998.0 mb 0.06 in1.5 mm 0.03 in0.8 mm 0.06 in1.5 mm
01:40 AM 46.7°F8.2°C 45.9°F7.7°C 97% Calm Calm -- 29.47 in998.0 mb 0.08 in2.0 mm 0.12 in3.0 mm 0.08 in2.0 mm
02:00 AM 46.6°F8.1°C 45.8°F7.7°C 97% Calm Calm -- 29.47 in998.0 mb 0.06 in1.5 mm 0.00 in0.0 mm 0.08 in2.0 mm
02:10 AM 46.5°F8.1°C 45.7°F7.6°C 97% Calm Calm -- 29.47 in998.0 mb 0.06 in1.5 mm 0.00 in0.0 mm 0.08 in2.0 mm
02:30 AM 46.5°F8.1°C 45.7°F7.6°C 97% Calm Calm -- 29.47 in998.0 mb 0.03 in0.8 mm 0.00 in0.0 mm 0.08 in2.0 mm
02:40 AM 46.4°F8.0°C 45.6°F7.6°C 97% Calm Calm -- 29.48 in998.3 mb 0.04 in1.0 mm 0.06 in1.5 mm 0.09 in2.3 mm
03:00 AM 46.4°F8.0°C 45.6°F7.6°C 97% Calm Calm -- 29.48 in998.3 mb 0.02 in0.5 mm 0.00 in0.0 mm 0.09 in2.3 mm
03:10 AM 46.3°F7.9°C 45.5°F7.5°C 97% Calm Calm -- 29.48 in998.3 mb 0.02 in0.5 mm 0.00 in0.0 mm 0.09 in2.3 mm
03:30 AM 46.0°F7.8°C 45.2°F7.3°C 97% Calm Calm -- 29.48 in998.3 mb 0.03 in0.8 mm 0.03 in0.8 mm 0.10 in2.5 mm
03:40 AM 45.8°F7.7°C 45.0°F7.2°C 97% Calm Calm -- 29.47 in998.0 mb 0.03 in0.8 mm 0.00 in0.0 mm 0.10 in2.5 mm
04:00 AM 45.5°F7.5°C 44.7°F7.1°C 97% Calm Calm -- 29.48 in998.3 mb 0.02 in0.5 mm 0.00 in0.0 mm 0.10 in2.5 mm
04:09 AM 45.4°F7.4°C 44.6°F7.0°C 97% Calm Calm -- 29.48 in998.3 mb 0.02 in0.5 mm 0.00 in0.0 mm 0.10 in2.5 mm
04:30 AM 45.5°F7.5°C 44.7°F7.1°C 97% Calm Calm -- 29.48 in998.3 mb 0.01 in0.3 mm 0.00 in0.0 mm 0.10 in2.5 mm
04:40 AM 45.5°F7.5°C 44.7°F7.1°C 97% Calm Calm -- 29.49 in998.6 mb 0.01 in0.3 mm 0.00 in0.0 mm 0.10 in2.5 mm
05:00 AM 45.5°F7.5°C 44.7°F7.1°C 97% Calm Calm -- 29.49 in998.6 mb 0.00 in0.0 mm 0.00 in0.0 mm 0.10 in2.5 mm
05:10 AM 45.5°F7.5°C 44.7°F7.1°C 97% Calm Calm -- 29.49 in998.6 mb 0.00 in0.0 mm 0.00 in0.0 mm 0.10 in2.5 mm
05:30 AM 45.7°F7.6°C 44.9°F7.2°C 97% Calm Calm -- 29.50 in999.0 mb 0.01 in0.3 mm 0.03 in0.8 mm 0.11 in2.8 mm
05:40 AM 45.7°F7.6°C 44.9°F7.2°C 97% Calm Calm -- 29.50 in999.0 mb 0.01 in0.3 mm 0.00 in0.0 mm 0.11 in2.8 mm
06:00 AM 45.9°F7.7°C 45.1°F7.3°C 97% Calm Calm -- 29.51 in999.3 mb 0.01 in0.3 mm 0.00 in0.0 mm 0.11 in2.8 mm
06:10 AM 46.0°F7.8°C 45.2°F7.3°C 97% Calm Calm -- 29.51 in999.3 mb 0.01 in0.3 mm 0.00 in0.0 mm 0.11 in2.8 mm
06:30 AM 45.9°F7.7°C 45.1°F7.3°C 97% Calm Calm -- 29.51 in999.3 mb 0.00 in0.0 mm 0.00 in0.0 mm 0.11 in2.8 mm
06:40 AM 45.9°F7.7°C 45.1°F7.3°C 97% Calm Calm -- 29.52 in999.7 mb 0.00 in0.0 mm 0.00 in0.0 mm 0.11 in2.8 mm
07:00 AM 46.2°F7.9°C 45.4°F7.4°C 97% Calm Calm -- 29.52 in999.7 mb 0.00 in0.0 mm 0.00 in0.0 mm 0.11 in2.8 mm
07:10 AM 46.5°F8.1°C 45.7°F7.6°C 97% Calm Calm -- 29.53 in1000.0 mb 0.00 in0.0 mm 0.00 in0.0 mm 0.11 in2.8 mm
07:30 AM 46.9°F8.3°C 46.1°F7.8°C 97% Calm Calm -- 29.53 in1000.0 mb 0.00 in0.0 mm 0.00 in0.0 mm 0.11 in2.8 mm
07:40 AM 47.0°F8.3°C 46.2°F7.9°C 97% Calm Calm -- 29.53 in1000.0 mb 0.00 in0.0 mm 0.00 in0.0 mm 0.11 in2.8 mm
08:00 AM 47.1°F8.4°C 46.3°F7.9°C 97% Calm Calm -- 29.54 in1000.3 mb 0.00 in0.0 mm 0.00 in0.0 mm 0.11 in2.8 mm
08:10 AM 47.3°F8.5°C 46.5°F8.1°C 97% Calm Calm -- 29.54 in1000.3 mb 0.00 in0.0 mm 0.00 in0.0 mm 0.11 in2.8 mm
08:30 AM 47.4°F8.6°C 46.6°F8.1°C 97% Calm Calm -- 29.54 in1000.3 mb 0.00 in0.0 mm 0.00 in0.0 mm 0.11 in2.8 mm
08:40 AM 47.6°F8.7°C 46.8°F8.2°C 97% Calm Calm -- 29.55 in1000.7 mb 0.01 in0.3 mm 0.06 in1.5 mm 0.12 in3.0 mm
09:00 AM 46.4°F8.0°C 45.6°F7.6°C 97% Calm Calm -- 29.55 in1000.7 mb 0.02 in0.5 mm 0.02 in0.5 mm 0.13 in3.3 mm
09:10 AM 46.2°F7.9°C 45.4°F7.4°C 97% Calm Calm -- 29.56 in1001.0 mb 0.02 in0.5 mm 0.00 in0.0 mm 0.13 in3.3 mm
09:30 AM 46.3°F7.9°C 45.5°F7.5°C 97% Calm Calm -- 29.56 in1001.0 mb 0.02 in0.5 mm 0.00 in0.0 mm 0.13 in3.3 mm
09:40 AM 46.8°F8.2°C 46.0°F7.8°C 97% Calm Calm -- 29.57 in1001.4 mb 0.02 in0.5 mm 0.00 in0.0 mm 0.13 in3.3 mm
10:00 AM 47.6°F8.7°C 46.8°F8.2°C 97% Calm Calm -- 29.58 in1001.7 mb 0.01 in0.3 mm 0.00 in0.0 mm 0.13 in3.3 mm
10:10 AM 48.0°F8.9°C 46.9°F8.3°C 96% Calm Calm -- 29.58 in1001.7 mb 0.01 in0.3 mm 0.00 in0.0 mm 0.13 in3.3 mm
10:30 AM 47.2°F8.4°C 46.1°F7.8°C 96% Calm Calm -- 29.58 in1001.7 mb 0.00 in0.0 mm 0.00 in0.0 mm 0.13 in3.3 mm
10:40 AM 46.9°F8.3°C 45.8°F7.7°C 96% Calm Calm -- 29.59 in1002.0 mb 0.00 in0.0 mm 0.00 in0.0 mm 0.13 in3.3 mm
11:00 AM 48.0°F8.9°C 46.9°F8.3°C 96% Calm Calm -- 29.60 in1002.4 mb 0.00 in0.0 mm 0.00 in0.0 mm 0.13 in3.3 mm
11:10 AM 48.8°F9.3°C 47.4°F8.6°C 95% Calm Calm -- 29.61 in1002.7 mb 0.00 in0.0 mm 0.00 in0.0 mm 0.13 in3.3 mm
11:30 AM 48.2°F9.0°C 46.3°F7.9°C 93% Calm Calm -- 29.62 in1003.0 mb 0.00 in0.0 mm 0.00 in0.0 mm 0.13 in3.3 mm
11:40 AM 48.0°F8.9°C 45.5°F7.5°C 91% 1.0 mph SW1.6 kmh SW 8.0 mph12.9 kmh 29.62 in1003.0 mb 0.00 in0.0 mm 0.00 in0.0 mm 0.13 in3.3 mm
12:00 PM 48.0°F8.9°C 44.6°F7.0°C 88% Calm Calm 1.0 mph1.6 kmh 29.63 in1003.4 mb 0.00 in0.0 mm 0.00 in0.0 mm 0.13 in3.3 mm
12:10 PM 47.9°F8.8°C 44.2°F6.8°C 87% 5.0 mph WSW8.0 kmh WSW 5.0 mph8.0 kmh 29.64 in1003.7 mb 0.00 in0.0 mm 0.00 in0.0 mm 0.13 in3.3 mm
12:30 PM 48.2°F9.0°C 43.9°F6.6°C 85% Calm Calm -- 29.65 in1004.1 mb 0.00 in0.0 mm 0.00 in0.0 mm 0.13 in3.3 mm
12:39 PM 48.5°F9.2°C 43.3°F6.3°C 82% Calm Calm 11.0 mph17.7 kmh 29.65 in1004.1 mb 0.00 in0.0 mm 0.00 in0.0 mm 0.13 in3.3 mm
01:00 PM 48.8°F9.3°C 43.2°F6.2°C 81% Calm Calm -- 29.66 in1004.4 mb 0.00 in0.0 mm 0.00 in0.0 mm 0.13 in3.3 mm
01:09 PM 49.0°F9.4°C 43.4°F6.3°C 81% 3.0 mph WSW4.8 kmh WSW 10.0 mph16.1 kmh 29.66 in1004.4 mb 0.00 in0.0 mm 0.00 in0.0 mm 0.13 in3.3 mm
01:30 PM 49.2°F9.6°C 43.0°F6.1°C 79% 5.0 mph SW8.0 kmh SW 9.0 mph14.5 kmh 29.67 in1004.7 mb 0.00 in0.0 mm 0.00 in0.0 mm 0.13 in3.3 mm
01:40 PM 49.3°F9.6°C 42.7°F5.9°C 78% 12.0 mph W19.3 kmh W 12.0 mph19.3 kmh 29.67 in1004.7 mb 0.00 in0.0 mm 0.00 in0.0 mm 0.13 in3.3 mm
02:00 PM 48.1°F8.9°C 42.6°F5.9°C 81% Calm Calm -- 29.68 in1005.1 mb 0.00 in0.0 mm 0.00 in0.0 mm 0.13 in3.3 mm
02:10 PM 47.8°F8.8°C 42.9°F6.1°C 83% 3.0 mph W4.8 kmh W 5.0 mph8.0 kmh 29.69 in1005.4 mb 0.00 in0.0 mm 0.00 in0.0 mm 0.13 in3.3 mm
02:30 PM 48.0°F8.9°C 43.1°F6.2°C 83% Calm Calm -- 29.69 in1005.4 mb 0.00 in0.0 mm 0.00 in0.0 mm 0.13 in3.3 mm
02:40 PM 47.6°F8.7°C 42.4°F5.8°C 82% Calm Calm 10.0 mph16.1 kmh 29.69 in1005.4 mb 0.00 in0.0 mm 0.00 in0.0 mm 0.13 in3.3 mm
03:00 PM 48.6°F9.2°C 43.4°F6.3°C 82% Calm Calm -- 29.70 in1005.8 mb 0.00 in0.0 mm 0.00 in0.0 mm 0.13 in3.3 mm
03:10 PM 49.2°F9.6°C 43.3°F6.3°C 80% Calm Calm 12.0 mph19.3 kmh 29.70 in1005.8 mb 0.00 in0.0 mm 0.00 in0.0 mm 0.13 in3.3 mm
03:30 PM 48.8°F9.3°C 42.9°F6.1°C 80% 1.0 mph WSW1.6 kmh WSW 1.0 mph1.6 kmh 29.70 in1005.8 mb 0.00 in0.0 mm 0.00 in0.0 mm 0.13 in3.3 mm
03:40 PM 48.1°F8.9°C 43.5°F6.4°C 84% 3.0 mph SW4.8 kmh SW 10.0 mph16.1 kmh 29.70 in1005.8 mb 0.00 in0.0 mm 0.00 in0.0 mm 0.13 in3.3 mm
04:00 PM 48.6°F9.2°C 44.6°F7.0°C 86% Calm Calm -- 29.71 in1006.1 mb 0.00 in0.0 mm 0.00 in0.0 mm 0.13 in3.3 mm
04:10 PM 49.1°F9.5°C 44.8°F7.1°C 85% Calm Calm 6.0 mph9.7 kmh 29.71 in1006.1 mb 0.00 in0.0 mm 0.00 in0.0 mm 0.13 in3.3 mm
04:30 PM 49.5°F9.7°C 45.5°F7.5°C 86% Calm Calm 2.0 mph3.2 kmh 29.71 in1006.1 mb 0.00 in0.0 mm 0.00 in0.0 mm 0.13 in3.3 mm
04:40 PM 48.8°F9.3°C 44.5°F6.9°C 85% 3.0 mph WSW4.8 kmh WSW 7.0 mph11.3 kmh 29.71 in1006.1 mb 0.00 in0.0 mm 0.00 in0.0 mm 0.13 in3.3 mm
05:00 PM 48.0°F8.9°C 43.1°F6.2°C 83% Calm Calm -- 29.72 in1006.4 mb 0.00 in0.0 mm 0.00 in0.0 mm 0.13 in3.3 mm
05:10 PM 48.0°F8.9°C 43.1°F6.2°C 83% Calm Calm 5.0 mph8.0 kmh 29.72 in1006.4 mb 0.00 in0.0 mm 0.00 in0.0 mm 0.13 in3.3 mm
05:30 PM 48.0°F8.9°C 44.0°F6.7°C 86% Calm Calm -- 29.72 in1006.4 mb 0.00 in0.0 mm 0.00 in0.0 mm 0.13 in3.3 mm
05:40 PM 47.6°F8.7°C 43.6°F6.4°C 86% Calm Calm -- 29.73 in1006.8 mb 0.00 in0.0 mm 0.00 in0.0 mm 0.13 in3.3 mm
06:00 PM 47.0°F8.3°C 43.3°F6.3°C 87% Calm Calm -- 29.73 in1006.8 mb 0.00 in0.0 mm 0.00 in0.0 mm 0.13 in3.3 mm
06:10 PM 46.9°F8.3°C 43.2°F6.2°C 87% Calm Calm 3.0 mph4.8 kmh 29.73 in1006.8 mb 0.00 in0.0 mm 0.00 in0.0 mm 0.13 in3.3 mm
06:30 PM 46.6°F8.1°C 43.2°F6.2°C 88% Calm Calm 5.0 mph8.0 kmh 29.73 in1006.8 mb 0.00 in0.0 mm 0.00 in0.0 mm 0.13 in3.3 mm
06:40 PM 46.4°F8.0°C 43.1°F6.2°C 88% Calm Calm -- 29.74 in1007.1 mb 0.00 in0.0 mm 0.00 in0.0 mm 0.13 in3.3 mm
07:00 PM 45.9°F7.7°C 42.9°F6.1°C 89% Calm Calm -- 29.74 in1007.1 mb 0.00 in0.0 mm 0.00 in0.0 mm 0.13 in3.3 mm
07:10 PM 45.9°F7.7°C 42.9°F6.1°C 89% 3.0 mph WSW4.8 kmh WSW 7.0 mph11.3 kmh 29.74 in1007.1 mb 0.00 in0.0 mm 0.00 in0.0 mm 0.13 in3.3 mm
07:30 PM 46.0°F7.8°C 42.1°F5.6°C 86% Calm Calm -- 29.74 in1007.1 mb 0.00 in0.0 mm 0.00 in0.0 mm 0.13 in3.3 mm
07:40 PM 46.0°F7.8°C 42.1°F5.6°C 86% Calm Calm 6.0 mph9.7 kmh 29.75 in1007.5 mb 0.00 in0.0 mm 0.00 in0.0 mm 0.13 in3.3 mm
08:00 PM 45.7°F7.6°C 42.4°F5.8°C 88% Calm Calm -- 29.74 in1007.1 mb 0.00 in0.0 mm 0.00 in0.0 mm 0.13 in3.3 mm
08:10 PM 45.4°F7.4°C 42.4°F5.8°C 89% Calm Calm -- 29.75 in1007.5 mb 0.00 in0.0 mm 0.00 in0.0 mm 0.13 in3.3 mm
08:30 PM 44.8°F7.1°C 42.1°F5.6°C 90% Calm Calm -- 29.75 in1007.5 mb 0.00 in0.0 mm 0.00 in0.0 mm 0.13 in3.3 mm
08:40 PM 44.6°F7.0°C 42.1°F5.6°C 91% Calm Calm -- 29.74 in1007.1 mb 0.00 in0.0 mm 0.00 in0.0 mm 0.13 in3.3 mm
09:00 PM 43.9°F6.6°C 41.5°F5.3°C 91% Calm Calm -- 29.74 in1007.1 mb 0.00 in0.0 mm 0.00 in0.0 mm 0.13 in3.3 mm
09:09 PM 43.8°F6.6°C 41.6°F5.3°C 92% Calm Calm -- 29.74 in1007.1 mb 0.00 in0.0 mm 0.00 in0.0 mm 0.13 in3.3 mm
09:30 PM 44.0°F6.7°C 42.1°F5.6°C 93% Calm Calm -- 29.74 in1007.1 mb 0.01 in0.3 mm 0.03 in0.8 mm 0.14 in3.6 mm
09:40 PM 43.9°F6.6°C 42.0°F5.6°C 93% Calm Calm -- 29.74 in1007.1 mb 0.01 in0.3 mm 0.00 in0.0 mm 0.14 in3.6 mm
10:00 PM 43.8°F6.6°C 41.9°F5.5°C 93% Calm Calm -- 29.75 in1007.5 mb 0.01 in0.3 mm 0.00 in0.0 mm 0.14 in3.6 mm
10:10 PM 44.1°F6.7°C 42.2°F5.7°C 93% Calm Calm 7.0 mph11.3 kmh 29.74 in1007.1 mb 0.02 in0.5 mm 0.06 in1.5 mm 0.15 in3.8 mm
10:30 PM 44.4°F6.9°C 42.8°F6.0°C 94% Calm Calm -- 29.75 in1007.5 mb 0.01 in0.3 mm 0.00 in0.0 mm 0.15 in3.8 mm
10:40 PM 44.4°F6.9°C 42.8°F6.0°C 94% Calm Calm -- 29.75 in1007.5 mb 0.01 in0.3 mm 0.00 in0.0 mm 0.15 in3.8 mm
11:00 PM 43.7°F6.5°C 42.1°F5.6°C 94% Calm Calm -- 29.74 in1007.1 mb 0.01 in0.3 mm 0.00 in0.0 mm 0.15 in3.8 mm
11:10 PM 43.3°F6.3°C 41.7°F5.4°C 94% Calm Calm -- 29.74 in1007.1 mb 0.01 in0.3 mm 0.00 in0.0 mm 0.15 in3.8 mm
11:30 PM 43.1°F6.2°C 41.5°F5.3°C 94% Calm Calm -- 29.75 in1007.5 mb 0.00 in0.0 mm 0.00 in0.0 mm 0.15 in3.8 mm
11:40 PM 43.0°F6.1°C 41.4°F5.2°C 94% Calm Calm -- 29.75 in1007.5 mb 0.00 in0.0 mm 0.00 in0.0 mm 0.15 in3.8 mm